sensor_id;sensor_type;location;lat;lon;timestamp;temperature;humidity
4813;DHT22;2420;51.202;8.698;2023-05-19T00:02:15;8.80;1.00
4813;DHT22;2420;51.202;8.698;2023-05-19T00:04:42;8.80;1.00
4813;DHT22;2420;51.202;8.698;2023-05-19T00:07:09;8.80;1.00
4813;DHT22;2420;51.202;8.698;2023-05-19T00:09:36;8.80;1.00
4813;DHT22;2420;51.202;8.698;2023-05-19T00:12:02;8.80;1.00
4813;DHT22;2420;51.202;8.698;2023-05-19T00:14:28;8.70;1.00
4813;DHT22;2420;51.202;8.698;2023-05-19T00:16:54;8.70;1.00
4813;DHT22;2420;51.202;8.698;2023-05-19T00:19:20;8.70;1.00
4813;DHT22;2420;51.202;8.698;2023-05-19T00:21:46;8.70;1.00
4813;DHT22;2420;51.202;8.698;2023-05-19T00:24:11;8.60;1.00
4813;DHT22;2420;51.202;8.698;2023-05-19T00:26:37;8.60;1.00
4813;DHT22;2420;51.202;8.698;2023-05-19T00:29:03;8.60;1.00
4813;DHT22;2420;51.202;8.698;2023-05-19T00:31:29;8.60;1.00
4813;DHT22;2420;51.202;8.698;2023-05-19T00:33:56;8.70;1.00
4813;DHT22;2420;51.202;8.698;2023-05-19T00:36:21;8.60;1.00
4813;DHT22;2420;51.202;8.698;2023-05-19T00:38:47;8.60;1.00
4813;DHT22;2420;51.202;8.698;2023-05-19T00:41:13;8.60;1.00
4813;DHT22;2420;51.202;8.698;2023-05-19T00:43:38;8.60;1.00
4813;DHT22;2420;51.202;8.698;2023-05-19T00:46:04;8.60;1.00
4813;DHT22;2420;51.202;8.698;2023-05-19T00:48:31;8.60;1.00
4813;DHT22;2420;51.202;8.698;2023-05-19T00:50:59;8.60;1.00
4813;DHT22;2420;51.202;8.698;2023-05-19T00:53:29;8.50;1.00
4813;DHT22;2420;51.202;8.698;2023-05-19T00:55:55;8.60;1.00
4813;DHT22;2420;51.202;8.698;2023-05-19T00:58:21;8.50;1.00
4813;DHT22;2420;51.202;8.698;2023-05-19T01:00:48;8.50;1.00
4813;DHT22;2420;51.202;8.698;2023-05-19T01:03:14;8.50;1.00
4813;DHT22;2420;51.202;8.698;2023-05-19T01:05:44;8.50;1.00
4813;DHT22;2420;51.202;8.698;2023-05-19T01:08:10;8.50;1.00
4813;DHT22;2420;51.202;8.698;2023-05-19T01:10:36;8.50;1.00
4813;DHT22;2420;51.202;8.698;2023-05-19T01:13:02;8.50;1.00
4813;DHT22;2420;51.202;8.698;2023-05-19T01:15:30;8.40;1.00
4813;DHT22;2420;51.202;8.698;2023-05-19T01:18:16;8.40;1.00
4813;DHT22;2420;51.202;8.698;2023-05-19T01:20:53;8.40;1.00
4813;DHT22;2420;51.202;8.698;2023-05-19T01:31:29;8.40;1.00
4813;DHT22;2420;51.202;8.698;2023-05-19T01:33:55;8.40;1.00
4813;DHT22;2420;51.202;8.698;2023-05-19T01:36:22;8.40;1.00
4813;DHT22;2420;51.202;8.698;2023-05-19T01:38:50;8.40;1.00
4813;DHT22;2420;51.202;8.698;2023-05-19T01:41:19;8.40;1.00
4813;DHT22;2420;51.202;8.698;2023-05-19T01:43:47;8.30;1.00
4813;DHT22;2420;51.202;8.698;2023-05-19T01:46:13;8.30;1.00
4813;DHT22;2420;51.202;8.698;2023-05-19T01:48:40;8.30;1.00
4813;DHT22;2420;51.202;8.698;2023-05-19T01:51:09;8.30;1.00
4813;DHT22;2420;51.202;8.698;2023-05-19T01:53:35;8.30;1.00
4813;DHT22;2420;51.202;8.698;2023-05-19T01:56:01;8.20;1.00
4813;DHT22;2420;51.202;8.698;2023-05-19T01:58:43;8.20;1.00
4813;DHT22;2420;51.202;8.698;2023-05-19T02:01:19;8.10;1.00
4813;DHT22;2420;51.202;8.698;2023-05-19T02:09:06;8.10;1.00
4813;DHT22;2420;51.202;8.698;2023-05-19T02:11:36;8.10;1.00
4813;DHT22;2420;51.202;8.698;2023-05-19T02:14:15;8.10;1.00
4813;DHT22;2420;51.202;8.698;2023-05-19T02:16:44;8.00;1.00
4813;DHT22;2420;51.202;8.698;2023-05-19T02:19:29;7.90;1.00
4813;DHT22;2420;51.202;8.698;2023-05-19T02:21:56;8.00;1.00
4813;DHT22;2420;51.202;8.698;2023-05-19T02:24:22;7.90;1.00
4813;DHT22;2420;51.202;8.698;2023-05-19T02:26:49;7.90;1.00
4813;DHT22;2420;51.202;8.698;2023-05-19T02:29:14;7.90;1.00
4813;DHT22;2420;51.202;8.698;2023-05-19T02:31:40;7.80;1.00
4813;DHT22;2420;51.202;8.698;2023-05-19T02:34:08;7.80;1.00
4813;DHT22;2420;51.202;8.698;2023-05-19T02:36:34;7.70;1.00
4813;DHT22;2420;51.202;8.698;2023-05-19T02:39:01;7.70;1.00
4813;DHT22;2420;51.202;8.698;2023-05-19T02:41:27;7.60;1.00
4813;DHT22;2420;51.202;8.698;2023-05-19T02:43:53;7.60;1.00
4813;DHT22;2420;51.202;8.698;2023-05-19T02:46:18;7.50;1.00
4813;DHT22;2420;51.202;8.698;2023-05-19T02:48:44;7.60;1.00
4813;DHT22;2420;51.202;8.698;2023-05-19T02:51:10;7.50;1.00
4813;DHT22;2420;51.202;8.698;2023-05-19T02:53:35;7.60;1.00
4813;DHT22;2420;51.202;8.698;2023-05-19T02:56:01;7.50;1.00
4813;DHT22;2420;51.202;8.698;2023-05-19T02:58:26;7.50;1.00
4813;DHT22;2420;51.202;8.698;2023-05-19T03:00:52;7.50;1.00
4813;DHT22;2420;51.202;8.698;2023-05-19T03:03:17;7.40;1.00
4813;DHT22;2420;51.202;8.698;2023-05-19T03:05:43;7.40;1.00
4813;DHT22;2420;51.202;8.698;2023-05-19T03:08:10;7.30;1.00
4813;DHT22;2420;51.202;8.698;2023-05-19T03:10:35;7.20;1.00
4813;DHT22;2420;51.202;8.698;2023-05-19T03:13:01;7.20;1.00
4813;DHT22;2420;51.202;8.698;2023-05-19T03:15:26;7.20;1.00
4813;DHT22;2420;51.202;8.698;2023-05-19T03:17:52;7.20;1.00
4813;DHT22;2420;51.202;8.698;2023-05-19T03:20:17;7.10;1.00
4813;DHT22;2420;51.202;8.698;2023-05-19T03:22:43;7.10;1.00
4813;DHT22;2420;51.202;8.698;2023-05-19T03:25:09;7.10;1.00
4813;DHT22;2420;51.202;8.698;2023-05-19T03:27:34;7.10;1.00
4813;DHT22;2420;51.202;8.698;2023-05-19T03:30:00;7.10;1.00
4813;DHT22;2420;51.202;8.698;2023-05-19T03:32:26;7.00;1.00
4813;DHT22;2420;51.202;8.698;2023-05-19T03:34:51;7.00;1.00
4813;DHT22;2420;51.202;8.698;2023-05-19T03:37:17;6.90;1.00
4813;DHT22;2420;51.202;8.698;2023-05-19T03:39:43;6.90;1.00
4813;DHT22;2420;51.202;8.698;2023-05-19T03:42:08;6.90;1.00
4813;DHT22;2420;51.202;8.698;2023-05-19T03:44:34;6.80;1.00
4813;DHT22;2420;51.202;8.698;2023-05-19T03:46:59;6.80;1.00
4813;DHT22;2420;51.202;8.698;2023-05-19T03:49:25;6.70;1.00
4813;DHT22;2420;51.202;8.698;2023-05-19T03:51:50;6.70;1.00
4813;DHT22;2420;51.202;8.698;2023-05-19T03:54:16;6.70;1.00
4813;DHT22;2420;51.202;8.698;2023-05-19T03:56:42;6.60;1.00
4813;DHT22;2420;51.202;8.698;2023-05-19T03:59:07;6.70;1.00
4813;DHT22;2420;51.202;8.698;2023-05-19T04:01:35;6.70;1.00
4813;DHT22;2420;51.202;8.698;2023-05-19T04:04:01;6.70;1.00
4813;DHT22;2420;51.202;8.698;2023-05-19T04:06:27;6.60;1.00
4813;DHT22;2420;51.202;8.698;2023-05-19T04:08:52;6.70;1.00
4813;DHT22;2420;51.202;8.698;2023-05-19T04:11:18;6.70;1.00
4813;DHT22;2420;51.202;8.698;2023-05-19T04:13:46;6.60;1.00
4813;DHT22;2420;51.202;8.698;2023-05-19T04:16:12;6.50;1.00
4813;DHT22;2420;51.202;8.698;2023-05-19T04:18:38;6.60;1.00
4813;DHT22;2420;51.202;8.698;2023-05-19T04:21:03;6.60;1.00
4813;DHT22;2420;51.202;8.698;2023-05-19T04:23:29;6.60;1.00
4813;DHT22;2420;51.202;8.698;2023-05-19T04:25:55;6.60;1.00
4813;DHT22;2420;51.202;8.698;2023-05-19T04:28:22;6.60;1.00
4813;DHT22;2420;51.202;8.698;2023-05-19T04:30:48;6.70;1.00
4813;DHT22;2420;51.202;8.698;2023-05-19T04:33:14;6.80;1.00
4813;DHT22;2420;51.202;8.698;2023-05-19T04:35:40;6.90;1.00
4813;DHT22;2420;51.202;8.698;2023-05-19T04:38:06;6.90;1.00
4813;DHT22;2420;51.202;8.698;2023-05-19T04:40:34;7.00;1.00
4813;DHT22;2420;51.202;8.698;2023-05-19T04:42:59;7.10;1.00
4813;DHT22;2420;51.202;8.698;2023-05-19T04:45:26;7.20;1.00
4813;DHT22;2420;51.202;8.698;2023-05-19T04:47:52;7.30;1.00
4813;DHT22;2420;51.202;8.698;2023-05-19T04:50:22;7.30;1.00
4813;DHT22;2420;51.202;8.698;2023-05-19T04:52:48;7.40;1.00
4813;DHT22;2420;51.202;8.698;2023-05-19T04:55:13;7.50;1.00
4813;DHT22;2420;51.202;8.698;2023-05-19T04:57:39;7.60;1.00
4813;DHT22;2420;51.202;8.698;2023-05-19T05:00:05;7.80;1.00
4813;DHT22;2420;51.202;8.698;2023-05-19T05:02:36;8.00;1.00
4813;DHT22;2420;51.202;8.698;2023-05-19T05:05:02;8.10;1.00
4813;DHT22;2420;51.202;8.698;2023-05-19T05:07:28;8.30;1.00
4813;DHT22;2420;51.202;8.698;2023-05-19T05:09:54;8.50;1.00
4813;DHT22;2420;51.202;8.698;2023-05-19T05:12:20;8.80;1.00
4813;DHT22;2420;51.202;8.698;2023-05-19T05:14:46;9.20;1.00
4813;DHT22;2420;51.202;8.698;2023-05-19T05:17:12;9.50;1.00
4813;DHT22;2420;51.202;8.698;2023-05-19T05:19:38;9.80;1.00
4813;DHT22;2420;51.202;8.698;2023-05-19T05:22:04;9.90;1.00
4813;DHT22;2420;51.202;8.698;2023-05-19T05:24:30;10.10;1.00
4813;DHT22;2420;51.202;8.698;2023-05-19T05:26:57;10.10;1.00
4813;DHT22;2420;51.202;8.698;2023-05-19T05:29:23;10.10;1.00
4813;DHT22;2420;51.202;8.698;2023-05-19T05:31:49;10.10;1.00
4813;DHT22;2420;51.202;8.698;2023-05-19T05:34:14;10.10;1.00
4813;DHT22;2420;51.202;8.698;2023-05-19T05:36:40;10.10;1.00
4813;DHT22;2420;51.202;8.698;2023-05-19T05:39:08;10.20;1.00
4813;DHT22;2420;51.202;8.698;2023-05-19T05:41:34;10.20;1.00
4813;DHT22;2420;51.202;8.698;2023-05-19T05:44:00;10.30;1.00
4813;DHT22;2420;51.202;8.698;2023-05-19T05:46:26;10.30;1.00
4813;DHT22;2420;51.202;8.698;2023-05-19T05:48:52;10.40;1.00
4813;DHT22;2420;51.202;8.698;2023-05-19T05:51:20;10.50;1.00
4813;DHT22;2420;51.202;8.698;2023-05-19T05:53:53;10.60;1.00
4813;DHT22;2420;51.202;8.698;2023-05-19T05:56:20;10.70;1.00
4813;DHT22;2420;51.202;8.698;2023-05-19T05:58:45;10.90;1.00
4813;DHT22;2420;51.202;8.698;2023-05-19T06:01:11;11.00;1.00
4813;DHT22;2420;51.202;8.698;2023-05-19T06:03:41;11.10;1.00
4813;DHT22;2420;51.202;8.698;2023-05-19T06:06:10;11.20;1.00
4813;DHT22;2420;51.202;8.698;2023-05-19T06:08:36;11.20;1.00
4813;DHT22;2420;51.202;8.698;2023-05-19T06:11:02;11.10;1.00
4813;DHT22;2420;51.202;8.698;2023-05-19T06:13:36;11.20;1.00
4813;DHT22;2420;51.202;8.698;2023-05-19T06:16:01;11.30;1.00
4813;DHT22;2420;51.202;8.698;2023-05-19T06:18:27;11.30;1.00
4813;DHT22;2420;51.202;8.698;2023-05-19T06:20:53;11.30;1.00
4813;DHT22;2420;51.202;8.698;2023-05-19T06:23:19;11.30;1.00
4813;DHT22;2420;51.202;8.698;2023-05-19T06:25:44;11.20;1.00
4813;DHT22;2420;51.202;8.698;2023-05-19T06:28:10;11.30;1.00
4813;DHT22;2420;51.202;8.698;2023-05-19T06:30:36;11.30;1.00
4813;DHT22;2420;51.202;8.698;2023-05-19T06:33:02;11.30;1.00
4813;DHT22;2420;51.202;8.698;2023-05-19T06:35:28;11.40;1.00
4813;DHT22;2420;51.202;8.698;2023-05-19T06:37:54;11.50;1.00
4813;DHT22;2420;51.202;8.698;2023-05-19T06:40:21;11.70;1.00
4813;DHT22;2420;51.202;8.698;2023-05-19T06:42:47;11.80;1.00
4813;DHT22;2420;51.202;8.698;2023-05-19T06:45:12;12.00;1.00
4813;DHT22;2420;51.202;8.698;2023-05-19T06:47:38;12.10;1.00
4813;DHT22;2420;51.202;8.698;2023-05-19T06:50:09;12.30;1.00
4813;DHT22;2420;51.202;8.698;2023-05-19T06:52:35;12.30;1.00
4813;DHT22;2420;51.202;8.698;2023-05-19T06:55:01;12.20;1.00
4813;DHT22;2420;51.202;8.698;2023-05-19T06:57:26;12.20;1.00
4813;DHT22;2420;51.202;8.698;2023-05-19T06:59:52;12.10;1.00
4813;DHT22;2420;51.202;8.698;2023-05-19T07:02:17;12.20;1.00
4813;DHT22;2420;51.202;8.698;2023-05-19T07:04:43;12.20;1.00
4813;DHT22;2420;51.202;8.698;2023-05-19T07:07:08;12.30;1.00
4813;DHT22;2420;51.202;8.698;2023-05-19T07:09:34;12.40;1.00
4813;DHT22;2420;51.202;8.698;2023-05-19T07:12:00;12.50;1.00
4813;DHT22;2420;51.202;8.698;2023-05-19T07:14:26;12.60;1.00
4813;DHT22;2420;51.202;8.698;2023-05-19T07:16:51;12.60;1.00
4813;DHT22;2420;51.202;8.698;2023-05-19T07:19:17;12.50;1.00
4813;DHT22;2420;51.202;8.698;2023-05-19T07:21:46;12.50;1.00
4813;DHT22;2420;51.202;8.698;2023-05-19T07:24:12;12.70;1.00
4813;DHT22;2420;51.202;8.698;2023-05-19T07:26:38;12.90;1.00
4813;DHT22;2420;51.202;8.698;2023-05-19T07:29:03;13.10;1.00
4813;DHT22;2420;51.202;8.698;2023-05-19T07:31:29;13.00;1.00
4813;DHT22;2420;51.202;8.698;2023-05-19T07:33:55;12.90;1.00
4813;DHT22;2420;51.202;8.698;2023-05-19T07:36:20;13.20;1.00
4813;DHT22;2420;51.202;8.698;2023-05-19T07:38:46;13.30;1.00
4813;DHT22;2420;51.202;8.698;2023-05-19T07:41:12;13.50;1.00
4813;DHT22;2420;51.202;8.698;2023-05-19T07:43:37;13.50;1.00
4813;DHT22;2420;51.202;8.698;2023-05-19T07:46:04;13.30;1.00
4813;DHT22;2420;51.202;8.698;2023-05-19T07:48:29;13.50;1.00
4813;DHT22;2420;51.202;8.698;2023-05-19T07:50:55;13.90;1.00
4813;DHT22;2420;51.202;8.698;2023-05-19T07:53:21;13.90;1.00
4813;DHT22;2420;51.202;8.698;2023-05-19T07:55:47;14.30;1.00
4813;DHT22;2420;51.202;8.698;2023-05-19T07:58:13;14.20;1.00
4813;DHT22;2420;51.202;8.698;2023-05-19T08:00:39;13.90;1.00
4813;DHT22;2420;51.202;8.698;2023-05-19T08:03:08;14.10;1.00
4813;DHT22;2420;51.202;8.698;2023-05-19T08:05:34;14.10;1.00
4813;DHT22;2420;51.202;8.698;2023-05-19T08:08:00;14.20;1.00
4813;DHT22;2420;51.202;8.698;2023-05-19T08:10:26;14.40;1.00
4813;DHT22;2420;51.202;8.698;2023-05-19T08:12:51;14.40;1.00
4813;DHT22;2420;51.202;8.698;2023-05-19T08:15:17;14.30;1.00
4813;DHT22;2420;51.202;8.698;2023-05-19T08:17:43;14.50;1.00
4813;DHT22;2420;51.202;8.698;2023-05-19T08:20:09;14.70;1.00
4813;DHT22;2420;51.202;8.698;2023-05-19T08:22:35;14.80;1.00
4813;DHT22;2420;51.202;8.698;2023-05-19T08:25:01;15.00;1.00
4813;DHT22;2420;51.202;8.698;2023-05-19T08:27:28;14.90;1.00
4813;DHT22;2420;51.202;8.698;2023-05-19T08:29:54;14.50;1.00
4813;DHT22;2420;51.202;8.698;2023-05-19T08:32:20;14.90;1.00
4813;DHT22;2420;51.202;8.698;2023-05-19T08:34:45;15.10;1.00
4813;DHT22;2420;51.202;8.698;2023-05-19T08:37:11;15.00;1.00
4813;DHT22;2420;51.202;8.698;2023-05-19T08:39:37;15.10;1.00
4813;DHT22;2420;51.202;8.698;2023-05-19T08:42:03;14.90;1.00
4813;DHT22;2420;51.202;8.698;2023-05-19T08:44:29;15.10;1.00
4813;DHT22;2420;51.202;8.698;2023-05-19T08:46:56;15.30;1.00
4813;DHT22;2420;51.202;8.698;2023-05-19T08:49:26;15.20;1.00
4813;DHT22;2420;51.202;8.698;2023-05-19T08:52:08;15.20;1.00
4813;DHT22;2420;51.202;8.698;2023-05-19T08:54:42;15.40;1.00
4813;DHT22;2420;51.202;8.698;2023-05-19T08:57:10;15.50;1.00
4813;DHT22;2420;51.202;8.698;2023-05-19T08:59:36;15.30;1.00
4813;DHT22;2420;51.202;8.698;2023-05-19T09:02:03;15.80;1.00
4813;DHT22;2420;51.202;8.698;2023-05-19T09:04:29;16.10;1.00
4813;DHT22;2420;51.202;8.698;2023-05-19T09:06:56;16.10;1.00
4813;DHT22;2420;51.202;8.698;2023-05-19T09:09:23;16.10;1.00
4813;DHT22;2420;51.202;8.698;2023-05-19T09:11:48;15.90;1.00
4813;DHT22;2420;51.202;8.698;2023-05-19T09:14:14;15.90;1.00
4813;DHT22;2420;51.202;8.698;2023-05-19T09:16:40;15.80;1.00
4813;DHT22;2420;51.202;8.698;2023-05-19T09:19:12;15.90;1.00
4813;DHT22;2420;51.202;8.698;2023-05-19T09:21:39;16.10;1.00
4813;DHT22;2420;51.202;8.698;2023-05-19T09:24:06;16.10;1.00
4813;DHT22;2420;51.202;8.698;2023-05-19T09:26:40;16.40;1.00
4813;DHT22;2420;51.202;8.698;2023-05-19T09:29:14;15.80;1.00
4813;DHT22;2420;51.202;8.698;2023-05-19T09:31:47;15.50;1.00
4813;DHT22;2420;51.202;8.698;2023-05-19T09:34:14;15.50;1.00
4813;DHT22;2420;51.202;8.698;2023-05-19T09:36:40;15.40;1.00
4813;DHT22;2420;51.202;8.698;2023-05-19T09:39:17;15.80;1.00
4813;DHT22;2420;51.202;8.698;2023-05-19T09:41:43;16.10;1.00
4813;DHT22;2420;51.202;8.698;2023-05-19T09:44:27;16.20;1.00
4813;DHT22;2420;51.202;8.698;2023-05-19T09:46:54;16.50;1.00
4813;DHT22;2420;51.202;8.698;2023-05-19T09:49:27;16.40;1.00
4813;DHT22;2420;51.202;8.698;2023-05-19T09:52:02;16.40;1.00
4813;DHT22;2420;51.202;8.698;2023-05-19T09:54:32;16.00;1.00
4813;DHT22;2420;51.202;8.698;2023-05-19T09:57:03;15.90;1.00
4813;DHT22;2420;51.202;8.698;2023-05-19T09:59:30;16.10;1.00
4813;DHT22;2420;51.202;8.698;2023-05-19T10:01:57;16.20;1.00
4813;DHT22;2420;51.202;8.698;2023-05-19T10:04:26;16.20;1.00
4813;DHT22;2420;51.202;8.698;2023-05-19T10:06:53;16.40;1.00
4813;DHT22;2420;51.202;8.698;2023-05-19T10:09:22;16.40;1.00
4813;DHT22;2420;51.202;8.698;2023-05-19T10:11:53;16.90;1.00
4813;DHT22;2420;51.202;8.698;2023-05-19T10:14:23;17.00;1.00
4813;DHT22;2420;51.202;8.698;2023-05-19T10:16:54;17.10;1.00
4813;DHT22;2420;51.202;8.698;2023-05-19T10:19:24;17.30;1.00
4813;DHT22;2420;51.202;8.698;2023-05-19T10:21:51;17.40;1.00
4813;DHT22;2420;51.202;8.698;2023-05-19T10:24:17;17.40;1.00
4813;DHT22;2420;51.202;8.698;2023-05-19T10:26:45;17.60;1.00
4813;DHT22;2420;51.202;8.698;2023-05-19T10:29:16;17.30;1.00
4813;DHT22;2420;51.202;8.698;2023-05-19T10:31:44;17.20;1.00
4813;DHT22;2420;51.202;8.698;2023-05-19T10:37:09;16.80;1.00
4813;DHT22;2420;51.202;8.698;2023-05-19T10:39:38;16.90;1.00
4813;DHT22;2420;51.202;8.698;2023-05-19T10:42:17;16.50;1.00
4813;DHT22;2420;51.202;8.698;2023-05-19T10:45:08;16.60;1.00
4813;DHT22;2420;51.202;8.698;2023-05-19T10:47:43;16.70;1.00
4813;DHT22;2420;51.202;8.698;2023-05-19T10:50:09;16.60;1.00
4813;DHT22;2420;51.202;8.698;2023-05-19T10:52:39;16.50;1.00
4813;DHT22;2420;51.202;8.698;2023-05-19T10:55:08;16.60;1.00
4813;DHT22;2420;51.202;8.698;2023-05-19T10:58:02;17.00;1.00
4813;DHT22;2420;51.202;8.698;2023-05-19T11:00:30;17.00;1.00
4813;DHT22;2420;51.202;8.698;2023-05-19T11:03:15;17.20;1.00
4813;DHT22;2420;51.202;8.698;2023-05-19T11:05:42;17.00;1.00
4813;DHT22;2420;51.202;8.698;2023-05-19T11:08:11;17.10;1.00
4813;DHT22;2420;51.202;8.698;2023-05-19T11:10:37;16.90;1.00
4813;DHT22;2420;51.202;8.698;2023-05-19T11:13:04;17.20;1.00
4813;DHT22;2420;51.202;8.698;2023-05-19T11:15:34;17.50;1.00
4813;DHT22;2420;51.202;8.698;2023-05-19T11:18:03;17.40;1.00
4813;DHT22;2420;51.202;8.698;2023-05-19T11:20:29;17.60;1.00
4813;DHT22;2420;51.202;8.698;2023-05-19T11:23:06;17.90;1.00
4813;DHT22;2420;51.202;8.698;2023-05-19T11:28:12;17.30;1.00
4813;DHT22;2420;51.202;8.698;2023-05-19T11:30:44;17.60;1.00
4813;DHT22;2420;51.202;8.698;2023-05-19T11:33:10;17.70;1.00
4813;DHT22;2420;51.202;8.698;2023-05-19T11:35:37;17.90;1.00
4813;DHT22;2420;51.202;8.698;2023-05-19T11:38:04;18.00;1.00
4813;DHT22;2420;51.202;8.698;2023-05-19T11:40:31;18.30;1.00
4813;DHT22;2420;51.202;8.698;2023-05-19T11:42:57;18.00;1.00
4813;DHT22;2420;51.202;8.698;2023-05-19T11:45:26;18.20;1.00
4813;DHT22;2420;51.202;8.698;2023-05-19T11:47:54;17.80;1.00
4813;DHT22;2420;51.202;8.698;2023-05-19T11:50:21;17.90;1.00
4813;DHT22;2420;51.202;8.698;2023-05-19T11:52:47;17.70;1.00
4813;DHT22;2420;51.202;8.698;2023-05-19T11:55:17;18.00;1.00
4813;DHT22;2420;51.202;8.698;2023-05-19T11:57:59;18.20;1.00
4813;DHT22;2420;51.202;8.698;2023-05-19T12:00:27;17.60;1.00
4813;DHT22;2420;51.202;8.698;2023-05-19T12:02:54;17.50;1.00
4813;DHT22;2420;51.202;8.698;2023-05-19T12:05:21;17.60;1.00
4813;DHT22;2420;51.202;8.698;2023-05-19T12:07:47;18.20;1.00
4813;DHT22;2420;51.202;8.698;2023-05-19T12:10:21;18.50;1.00
4813;DHT22;2420;51.202;8.698;2023-05-19T12:12:47;19.10;1.00
4813;DHT22;2420;51.202;8.698;2023-05-19T12:15:14;19.30;1.00
4813;DHT22;2420;51.202;8.698;2023-05-19T12:17:41;18.90;1.00
4813;DHT22;2420;51.202;8.698;2023-05-19T12:20:07;18.90;1.00
4813;DHT22;2420;51.202;8.698;2023-05-19T12:22:36;19.10;1.00
4813;DHT22;2420;51.202;8.698;2023-05-19T12:25:02;19.10;1.00
4813;DHT22;2420;51.202;8.698;2023-05-19T12:27:29;19.10;1.00
4813;DHT22;2420;51.202;8.698;2023-05-19T12:29:55;19.00;1.00
4813;DHT22;2420;51.202;8.698;2023-05-19T12:32:28;18.60;1.00
4813;DHT22;2420;51.202;8.698;2023-05-19T12:34:56;18.20;1.00
4813;DHT22;2420;51.202;8.698;2023-05-19T12:37:25;18.00;1.00
4813;DHT22;2420;51.202;8.698;2023-05-19T12:39:50;17.70;1.00
4813;DHT22;2420;51.202;8.698;2023-05-19T12:42:16;17.80;1.00
4813;DHT22;2420;51.202;8.698;2023-05-19T12:44:44;17.70;1.00
4813;DHT22;2420;51.202;8.698;2023-05-19T12:47:13;17.70;1.00
4813;DHT22;2420;51.202;8.698;2023-05-19T12:52:26;18.40;1.00
4813;DHT22;2420;51.202;8.698;2023-05-19T12:55:02;18.50;1.00
4813;DHT22;2420;51.202;8.698;2023-05-19T12:57:30;18.50;1.00
4813;DHT22;2420;51.202;8.698;2023-05-19T13:03:01;18.60;1.00
4813;DHT22;2420;51.202;8.698;2023-05-19T13:05:30;18.60;1.00
4813;DHT22;2420;51.202;8.698;2023-05-19T13:08:07;18.80;1.00
4813;DHT22;2420;51.202;8.698;2023-05-19T13:10:35;18.30;1.00
4813;DHT22;2420;51.202;8.698;2023-05-19T13:13:01;17.90;1.00
4813;DHT22;2420;51.202;8.698;2023-05-19T13:15:28;17.80;1.00
4813;DHT22;2420;51.202;8.698;2023-05-19T13:18:02;18.10;1.00
4813;DHT22;2420;51.202;8.698;2023-05-19T13:20:28;18.40;1.00
4813;DHT22;2420;51.202;8.698;2023-05-19T13:22:54;18.40;1.00
4813;DHT22;2420;51.202;8.698;2023-05-19T13:25:19;17.70;1.00
4813;DHT22;2420;51.202;8.698;2023-05-19T13:27:46;17.70;1.00
4813;DHT22;2420;51.202;8.698;2023-05-19T13:30:12;18.00;1.00
4813;DHT22;2420;51.202;8.698;2023-05-19T13:32:38;18.20;1.00
4813;DHT22;2420;51.202;8.698;2023-05-19T13:35:04;18.60;1.00
4813;DHT22;2420;51.202;8.698;2023-05-19T13:37:30;18.50;1.00
4813;DHT22;2420;51.202;8.698;2023-05-19T13:39:55;18.30;1.00
4813;DHT22;2420;51.202;8.698;2023-05-19T13:42:24;18.20;1.00
4813;DHT22;2420;51.202;8.698;2023-05-19T13:44:53;18.10;1.00
4813;DHT22;2420;51.202;8.698;2023-05-19T13:47:21;18.40;1.00
4813;DHT22;2420;51.202;8.698;2023-05-19T13:49:47;18.50;1.00
4813;DHT22;2420;51.202;8.698;2023-05-19T13:52:13;18.20;1.00
4813;DHT22;2420;51.202;8.698;2023-05-19T13:54:39;18.00;1.00
4813;DHT22;2420;51.202;8.698;2023-05-19T13:57:05;18.10;1.00
4813;DHT22;2420;51.202;8.698;2023-05-19T13:59:30;18.40;1.00
4813;DHT22;2420;51.202;8.698;2023-05-19T14:01:56;18.80;1.00
4813;DHT22;2420;51.202;8.698;2023-05-19T14:04:22;19.00;1.00
4813;DHT22;2420;51.202;8.698;2023-05-19T14:06:50;18.90;1.00
4813;DHT22;2420;51.202;8.698;2023-05-19T14:09:16;18.50;1.00
4813;DHT22;2420;51.202;8.698;2023-05-19T14:11:42;17.80;1.00
4813;DHT22;2420;51.202;8.698;2023-05-19T14:14:08;17.60;1.00
4813;DHT22;2420;51.202;8.698;2023-05-19T14:16:34;17.40;1.00
4813;DHT22;2420;51.202;8.698;2023-05-19T14:18:59;17.70;1.00
4813;DHT22;2420;51.202;8.698;2023-05-19T14:21:25;17.80;1.00
4813;DHT22;2420;51.202;8.698;2023-05-19T14:23:51;17.70;1.00
4813;DHT22;2420;51.202;8.698;2023-05-19T14:26:17;18.00;1.00
4813;DHT22;2420;51.202;8.698;2023-05-19T14:28:44;18.40;1.00
4813;DHT22;2420;51.202;8.698;2023-05-19T14:31:12;18.50;1.00
4813;DHT22;2420;51.202;8.698;2023-05-19T14:33:39;18.20;1.00
4813;DHT22;2420;51.202;8.698;2023-05-19T14:36:05;17.80;1.00
4813;DHT22;2420;51.202;8.698;2023-05-19T14:38:31;17.80;1.00
4813;DHT22;2420;51.202;8.698;2023-05-19T14:40:56;17.90;1.00
4813;DHT22;2420;51.202;8.698;2023-05-19T14:43:22;17.70;1.00
4813;DHT22;2420;51.202;8.698;2023-05-19T14:45:48;17.70;1.00
4813;DHT22;2420;51.202;8.698;2023-05-19T14:48:13;17.60;1.00
4813;DHT22;2420;51.202;8.698;2023-05-19T14:50:39;17.50;1.00
4813;DHT22;2420;51.202;8.698;2023-05-19T14:53:04;17.50;1.00
4813;DHT22;2420;51.202;8.698;2023-05-19T14:55:30;17.80;1.00
4813;DHT22;2420;51.202;8.698;2023-05-19T14:57:56;17.70;1.00
4813;DHT22;2420;51.202;8.698;2023-05-19T15:00:21;17.60;1.00
4813;DHT22;2420;51.202;8.698;2023-05-19T15:02:47;17.70;1.00
4813;DHT22;2420;51.202;8.698;2023-05-19T15:05:13;17.90;1.00
4813;DHT22;2420;51.202;8.698;2023-05-19T15:07:39;18.10;1.00
4813;DHT22;2420;51.202;8.698;2023-05-19T15:10:05;17.80;1.00
4813;DHT22;2420;51.202;8.698;2023-05-19T15:12:31;17.30;1.00
4813;DHT22;2420;51.202;8.698;2023-05-19T15:14:57;17.10;1.00
4813;DHT22;2420;51.202;8.698;2023-05-19T15:17:22;16.70;1.00
4813;DHT22;2420;51.202;8.698;2023-05-19T15:19:48;16.70;1.00
4813;DHT22;2420;51.202;8.698;2023-05-19T15:22:13;16.70;1.00
4813;DHT22;2420;51.202;8.698;2023-05-19T15:24:39;16.60;1.00
4813;DHT22;2420;51.202;8.698;2023-05-19T15:27:06;16.80;1.00
4813;DHT22;2420;51.202;8.698;2023-05-19T15:29:32;17.00;1.00
4813;DHT22;2420;51.202;8.698;2023-05-19T15:31:57;17.10;1.00
4813;DHT22;2420;51.202;8.698;2023-05-19T15:34:23;16.90;1.00
4813;DHT22;2420;51.202;8.698;2023-05-19T15:36:48;16.60;1.00
4813;DHT22;2420;51.202;8.698;2023-05-19T15:39:14;16.50;1.00
4813;DHT22;2420;51.202;8.698;2023-05-19T15:41:39;16.40;1.00
4813;DHT22;2420;51.202;8.698;2023-05-19T15:44:05;16.50;1.00
4813;DHT22;2420;51.202;8.698;2023-05-19T15:46:31;16.30;1.00
4813;DHT22;2420;51.202;8.698;2023-05-19T15:48:58;16.30;1.00
4813;DHT22;2420;51.202;8.698;2023-05-19T15:51:23;16.40;1.00
4813;DHT22;2420;51.202;8.698;2023-05-19T15:53:49;16.60;1.00
4813;DHT22;2420;51.202;8.698;2023-05-19T15:56:14;16.70;1.00
4813;DHT22;2420;51.202;8.698;2023-05-19T15:58:40;17.00;1.00
4813;DHT22;2420;51.202;8.698;2023-05-19T16:01:06;17.10;1.00
4813;DHT22;2420;51.202;8.698;2023-05-19T16:03:32;17.00;1.00
4813;DHT22;2420;51.202;8.698;2023-05-19T16:05:58;16.70;1.00
4813;DHT22;2420;51.202;8.698;2023-05-19T16:08:25;16.50;1.00
4813;DHT22;2420;51.202;8.698;2023-05-19T16:10:50;16.50;1.00
4813;DHT22;2420;51.202;8.698;2023-05-19T16:13:16;16.40;1.00
4813;DHT22;2420;51.202;8.698;2023-05-19T16:15:41;16.30;1.00
4813;DHT22;2420;51.202;8.698;2023-05-19T16:18:07;16.30;1.00
4813;DHT22;2420;51.202;8.698;2023-05-19T16:20:33;16.40;1.00
4813;DHT22;2420;51.202;8.698;2023-05-19T16:22:58;16.50;1.00
4813;DHT22;2420;51.202;8.698;2023-05-19T16:25:24;16.70;1.00
4813;DHT22;2420;51.202;8.698;2023-05-19T16:27:50;16.50;1.00
4813;DHT22;2420;51.202;8.698;2023-05-19T16:30:16;16.20;1.00
4813;DHT22;2420;51.202;8.698;2023-05-19T16:32:42;16.20;1.00
4813;DHT22;2420;51.202;8.698;2023-05-19T16:35:08;16.30;1.00
4813;DHT22;2420;51.202;8.698;2023-05-19T16:37:34;16.30;1.00
4813;DHT22;2420;51.202;8.698;2023-05-19T16:39:59;16.30;1.00
4813;DHT22;2420;51.202;8.698;2023-05-19T16:42:25;16.10;1.00
4813;DHT22;2420;51.202;8.698;2023-05-19T16:44:51;16.20;1.00
4813;DHT22;2420;51.202;8.698;2023-05-19T16:47:17;16.10;1.00